createdAt,value
2018-12-15T00:01:08.641Z,-3.28
2018-12-15T00:03:37.125Z,-3.17
2018-12-15T00:06:05.457Z,-3.08
2018-12-15T00:08:33.738Z,-3.36
2018-12-15T00:11:02.018Z,-3.29
2018-12-15T00:13:30.294Z,-3.33
2018-12-15T00:15:58.555Z,-3.40
2018-12-15T00:18:27.154Z,-3.38
2018-12-15T00:20:55.438Z,-3.37
2018-12-15T00:23:23.766Z,-3.40
2018-12-15T00:25:52.035Z,-3.29
2018-12-15T00:28:20.301Z,-3.35
2018-12-15T00:30:48.557Z,-3.27
2018-12-15T00:33:17.119Z,-3.36
2018-12-15T00:35:45.426Z,-3.22
2018-12-15T00:38:13.687Z,-3.35
2018-12-15T00:43:20.083Z,-3.37
2018-12-15T00:45:48.384Z,-3.38
2018-12-15T00:48:16.649Z,-3.42
2018-12-15T00:50:44.927Z,-3.47
2018-12-15T00:53:13.196Z,-3.51
2018-12-15T00:55:41.471Z,-3.46
2018-12-15T00:58:09.760Z,-3.41
2018-12-15T01:00:38.032Z,-3.38
2018-12-15T01:03:06.298Z,-3.47
2018-12-15T01:05:34.576Z,-3.38
2018-12-15T01:08:02.851Z,-3.19
2018-12-15T01:10:31.116Z,-3.28
2018-12-15T01:12:59.494Z,-3.40
2018-12-15T01:15:33.163Z,-3.36
2018-12-15T01:18:01.434Z,-3.34
2018-12-15T01:20:29.711Z,-3.38
2018-12-15T01:25:36.141Z,-3.43
2018-12-15T01:28:04.406Z,-3.46
2018-12-15T01:30:32.704Z,-3.36
2018-12-15T01:33:00.996Z,-3.37
2018-12-15T01:35:29.250Z,-3.45
2018-12-15T01:37:57.604Z,-3.36
2018-12-15T01:40:25.867Z,-3.38
2018-12-15T01:42:54.151Z,-3.26
2018-12-15T01:45:22.399Z,-3.08
2018-12-15T01:47:50.690Z,-2.95
2018-12-15T01:50:18.968Z,-2.96
2018-12-15T01:52:47.224Z,-3.11
2018-12-15T01:55:15.500Z,-3.03
2018-12-15T01:57:43.773Z,-2.84
2018-12-15T02:02:51.428Z,-2.99
2018-12-15T02:05:20.974Z,-2.68
2018-12-15T02:07:49.256Z,-2.84
2018-12-15T02:10:17.575Z,-2.86
2018-12-15T02:12:45.871Z,-2.67
2018-12-15T02:15:14.225Z,-2.43
2018-12-15T02:17:42.540Z,-2.80
2018-12-15T02:20:10.842Z,-2.86
2018-12-15T02:22:39.100Z,-2.80
2018-12-15T02:25:07.586Z,-2.70
2018-12-15T02:27:35.857Z,-2.81
2018-12-15T02:30:05.578Z,-2.58
2018-12-15T02:32:33.884Z,-2.69
2018-12-15T02:35:02.160Z,-2.73
2018-12-15T02:40:10.631Z,-2.63
2018-12-15T02:42:39.700Z,-2.98
2018-12-15T02:45:07.971Z,-3.08
2018-12-15T02:47:41.392Z,-3.00
2018-12-15T02:50:06.686Z,-2.97
2018-12-15T02:52:35.061Z,-2.82
2018-12-15T02:55:03.394Z,-2.74
2018-12-15T02:57:31.648Z,-2.83
2018-12-15T02:59:59.923Z,-2.53
2018-12-15T03:02:28.261Z,-2.42
2018-12-15T03:04:56.713Z,-2.85
2018-12-15T03:07:25.068Z,-2.95
2018-12-15T03:09:53.394Z,-2.96
2018-12-15T03:12:21.656Z,-3.06
2018-12-15T03:14:49.906Z,-3.05
2018-12-15T03:17:18.170Z,-2.94
2018-12-15T03:19:46.431Z,-2.98
2018-12-15T03:22:14.695Z,-2.75
2018-12-15T03:24:42.967Z,-2.78
2018-12-15T03:27:11.248Z,-2.99
2018-12-15T03:29:39.523Z,-3.10
2018-12-15T03:32:07.787Z,-2.74
2018-12-15T03:34:36.163Z,-2.90
2018-12-15T03:37:04.436Z,-2.91
2018-12-15T03:39:32.723Z,-2.92
2018-12-15T03:42:01.208Z,-2.75
2018-12-15T03:44:29.459Z,-2.84
2018-12-15T03:46:57.835Z,-2.63
2018-12-15T03:49:26.143Z,-2.51
2018-12-15T03:51:54.403Z,-2.65
2018-12-15T03:54:22.677Z,-2.53
2018-12-15T03:56:50.953Z,-2.91
2018-12-15T04:02:00.036Z,-2.91
2018-12-15T04:04:28.795Z,-2.86
2018-12-15T04:06:57.102Z,-2.56
2018-12-15T04:09:25.360Z,-2.73
2018-12-15T04:11:53.726Z,-2.89
2018-12-15T04:14:22.273Z,-2.95
2018-12-15T04:16:50.561Z,-2.71
2018-12-15T04:19:18.815Z,-2.59
2018-12-15T04:21:47.098Z,-2.93
2018-12-15T04:24:15.403Z,-2.96
2018-12-15T04:26:43.670Z,-3.00
2018-12-15T04:29:12.005Z,-3.01
2018-12-15T04:31:40.356Z,-3.07
2018-12-15T04:34:08.722Z,-2.79
2018-12-15T04:39:15.238Z,-2.64
2018-12-15T04:41:43.506Z,-2.37
2018-12-15T04:44:11.876Z,-2.58
2018-12-15T04:49:18.360Z,-2.84
2018-12-15T04:51:46.634Z,-3.00
2018-12-15T04:54:14.886Z,-3.16
2018-12-15T04:56:43.204Z,-3.13
2018-12-15T04:59:11.469Z,-3.16
2018-12-15T05:01:39.740Z,-2.87
2018-12-15T05:04:07.996Z,-2.56
2018-12-15T05:06:36.313Z,-2.91
2018-12-15T05:09:06.051Z,-2.87
2018-12-15T05:11:34.316Z,-2.89
2018-12-15T05:14:02.637Z,-2.92
2018-12-15T05:16:30.918Z,-2.82
2018-12-15T05:18:59.179Z,-2.51
2018-12-15T05:24:05.684Z,-2.67
2018-12-15T05:26:34.295Z,-2.60
2018-12-15T05:29:02.571Z,-2.64
2018-12-15T05:31:30.834Z,-2.73
2018-12-15T05:33:59.103Z,-2.65
2018-12-15T05:36:27.373Z,-2.91
2018-12-15T05:38:55.676Z,-2.70
2018-12-15T05:41:24.219Z,-2.66
2018-12-15T05:43:52.532Z,-2.76
2018-12-15T05:46:20.830Z,-2.83
2018-12-15T05:48:49.156Z,-2.89
2018-12-15T05:51:17.474Z,-2.95
2018-12-15T05:53:45.736Z,-2.76
2018-12-15T05:56:14.003Z,-2.67
2018-12-15T05:58:42.296Z,-2.88
2018-12-15T06:01:10.552Z,-2.55
2018-12-15T06:03:38.847Z,-2.56
2018-12-15T06:06:07.106Z,-2.80
2018-12-15T06:08:35.359Z,-2.65
2018-12-15T06:11:03.715Z,-2.72
2018-12-15T06:13:32.308Z,-2.67
2018-12-15T06:16:00.567Z,-2.62
2018-12-15T06:18:31.823Z,-2.58
2018-12-15T06:23:37.304Z,-2.67
2018-12-15T06:26:05.589Z,-2.80
2018-12-15T06:28:33.844Z,-2.71
2018-12-15T06:31:02.100Z,-2.63
2018-12-15T06:33:30.393Z,-2.65
2018-12-15T06:35:58.647Z,-2.67
2018-12-15T06:38:26.916Z,-2.74
2018-12-15T06:40:55.268Z,-2.80
2018-12-15T06:43:23.774Z,-2.66
2018-12-15T06:45:52.419Z,-2.67
2018-12-15T06:48:20.709Z,-2.95
2018-12-15T06:50:48.999Z,-2.70
2018-12-15T06:53:17.439Z,-2.70
2018-12-15T06:55:45.704Z,-2.63
2018-12-15T06:58:13.973Z,-2.81
2018-12-15T07:00:42.299Z,-2.89
2018-12-15T07:03:10.567Z,-2.98
2018-12-15T07:05:38.848Z,-2.86
2018-12-15T07:08:07.128Z,-2.82
2018-12-15T07:10:35.387Z,-3.01
2018-12-15T07:13:03.831Z,-2.87
2018-12-15T07:15:32.196Z,-2.75
2018-12-15T07:18:00.479Z,-2.97
2018-12-15T07:20:28.789Z,-2.60
2018-12-15T07:22:57.125Z,-2.58
2018-12-15T07:25:25.374Z,-2.65
2018-12-15T07:30:32.259Z,-2.64
2018-12-15T07:33:00.529Z,-2.82
2018-12-15T07:35:28.791Z,-2.80
2018-12-15T07:37:57.067Z,-2.88
2018-12-15T07:40:25.352Z,-2.83
2018-12-15T07:42:53.628Z,-2.76
2018-12-15T07:45:21.900Z,-2.67
2018-12-15T07:47:50.176Z,-2.90
2018-12-15T07:50:18.743Z,-2.74
2018-12-15T07:52:47.028Z,-2.78
2018-12-15T07:55:15.279Z,-2.65
2018-12-15T07:57:43.597Z,-2.92
2018-12-15T08:00:12.116Z,-2.71
2018-12-15T08:02:40.412Z,-2.56
2018-12-15T08:05:08.823Z,-2.37
2018-12-15T08:07:37.247Z,-2.57
2018-12-15T08:13:02.598Z,-2.62
2018-12-15T08:15:31.180Z,-2.76
2018-12-15T08:17:59.483Z,-2.68
2018-12-15T08:20:29.039Z,-2.65
2018-12-15T08:22:57.322Z,-2.69
2018-12-15T08:28:03.740Z,-2.65
2018-12-15T08:30:31.996Z,-2.69
2018-12-15T08:33:00.330Z,-2.61
2018-12-15T08:35:28.678Z,-2.31
2018-12-15T08:37:56.972Z,-2.37
2018-12-15T08:40:25.306Z,-2.34
2018-12-15T08:42:53.639Z,-2.27
2018-12-15T08:45:21.908Z,-2.53
2018-12-15T08:47:50.216Z,-2.39
2018-12-15T08:50:18.494Z,-2.56
2018-12-15T08:52:46.751Z,-2.54
2018-12-15T08:55:15.106Z,-2.52
2018-12-15T08:57:43.379Z,-2.56
2018-12-15T09:00:11.733Z,-2.35
2018-12-15T09:02:40.262Z,-2.44
2018-12-15T09:05:08.736Z,-2.35
2018-12-15T09:07:37.023Z,-2.36
2018-12-15T09:10:05.467Z,-2.52
2018-12-15T09:12:33.723Z,-2.36
2018-12-15T09:15:02.055Z,-2.48
2018-12-15T09:17:30.357Z,-2.55
2018-12-15T09:19:58.626Z,-2.57
2018-12-15T09:22:26.917Z,-2.56
2018-12-15T09:24:55.664Z,-2.45
2018-12-15T09:27:24.046Z,-2.50
2018-12-15T09:29:52.362Z,-2.56
2018-12-15T09:32:20.607Z,-2.50
2018-12-15T09:34:48.865Z,-2.41
2018-12-15T09:37:17.142Z,-2.38
2018-12-15T09:39:45.438Z,-2.61
2018-12-15T09:42:13.821Z,-2.45
2018-12-15T09:44:42.095Z,-2.49
2018-12-15T09:47:11.604Z,-2.44
2018-12-15T09:49:39.891Z,-2.39
2018-12-15T09:52:08.200Z,-2.38
2018-12-15T09:54:36.536Z,-2.32
2018-12-15T09:57:04.840Z,-2.32
2018-12-15T09:59:33.219Z,-2.31
2018-12-15T10:02:01.473Z,-2.22
2018-12-15T10:04:29.755Z,-2.48
2018-12-15T10:06:58.023Z,-2.31
2018-12-15T10:09:26.329Z,-2.20
2018-12-15T10:11:54.609Z,-2.57
2018-12-15T10:14:22.860Z,-2.59
2018-12-15T10:16:51.301Z,-2.78
2018-12-15T10:19:24.312Z,-2.36
2018-12-15T10:21:49.823Z,-2.37
2018-12-15T10:24:18.079Z,-2.36
2018-12-15T10:26:46.338Z,-2.62
2018-12-15T10:32:20.792Z,-2.03
2018-12-15T10:34:49.072Z,-1.95
2018-12-15T10:37:17.324Z,-2.04
2018-12-15T10:39:45.641Z,-2.32
2018-12-15T10:42:13.944Z,-2.35
2018-12-15T10:44:42.257Z,-2.10
2018-12-15T10:47:10.525Z,-2.02
2018-12-15T10:49:38.783Z,-2.21
2018-12-15T10:52:07.037Z,-1.98
2018-12-15T10:54:35.315Z,-2.30
2018-12-15T10:57:03.580Z,-2.29
2018-12-15T10:59:31.856Z,-2.20
2018-12-15T11:02:00.116Z,-2.00
2018-12-15T11:04:28.385Z,-1.90
2018-12-15T11:06:56.719Z,-2.09
2018-12-15T11:09:25.019Z,-1.96
2018-12-15T11:11:53.284Z,-2.06
2018-12-15T11:14:21.539Z,-1.85
2018-12-15T11:16:49.861Z,-1.81
2018-12-15T11:19:18.167Z,-1.78
2018-12-15T11:21:46.423Z,-1.66
2018-12-15T11:26:53.019Z,-1.64
2018-12-15T11:29:21.365Z,-1.63
2018-12-15T11:31:49.647Z,-1.76
2018-12-15T11:34:17.940Z,-1.65
2018-12-15T11:36:46.197Z,-1.79
2018-12-15T11:39:14.930Z,-1.55
2018-12-15T11:41:43.185Z,-1.68
2018-12-15T11:44:11.480Z,-1.59
2018-12-15T11:46:39.739Z,-1.47
2018-12-15T11:49:08.047Z,-1.62
2018-12-15T11:51:36.308Z,-1.64
2018-12-15T11:54:04.728Z,-1.70
2018-12-15T11:56:32.978Z,-1.87
2018-12-15T11:59:01.260Z,-1.61
2018-12-15T12:01:29.584Z,-1.82
2018-12-15T12:03:57.879Z,-1.94
2018-12-15T12:06:26.178Z,-2.11
2018-12-15T12:08:54.456Z,-2.12
2018-12-15T12:11:22.761Z,-1.63
2018-12-15T12:13:51.016Z,-1.65
2018-12-15T12:16:19.299Z,-1.77
2018-12-15T12:18:47.640Z,-2.09
2018-12-15T12:21:15.896Z,-1.92
2018-12-15T12:23:44.480Z,-1.87
2018-12-15T12:26:12.735Z,-2.07
2018-12-15T12:28:40.987Z,-1.69
2018-12-15T12:31:09.265Z,-2.11
2018-12-15T12:33:37.610Z,-2.32
2018-12-15T12:38:44.076Z,-2.16
2018-12-15T12:43:50.552Z,-1.68
2018-12-15T12:46:18.911Z,-1.79
2018-12-15T12:48:47.290Z,-1.62
2018-12-15T12:51:16.867Z,-2.18
2018-12-15T12:53:45.134Z,-2.27
2018-12-15T12:56:13.444Z,-2.47
2018-12-15T13:01:24.160Z,-2.56
2018-12-15T13:03:52.486Z,-2.49
2018-12-15T13:06:21.389Z,-2.08
2018-12-15T13:08:49.684Z,-1.86
2018-12-15T13:11:17.985Z,-2.18
2018-12-15T13:13:46.341Z,-1.84
2018-12-15T13:16:14.624Z,-1.91
2018-12-15T13:18:42.959Z,-1.60
2018-12-15T13:21:11.306Z,-1.77
2018-12-15T13:23:39.592Z,-1.78
2018-12-15T13:26:07.980Z,-1.84
2018-12-15T13:28:36.241Z,-1.95
2018-12-15T13:31:04.591Z,-2.05
2018-12-15T13:33:34.508Z,-1.91
2018-12-15T13:38:43.005Z,-2.19
2018-12-15T13:41:11.415Z,-2.43
2018-12-15T13:43:40.675Z,-2.45
2018-12-15T13:46:09.088Z,-2.51
2018-12-15T13:48:37.371Z,-2.65
2018-12-15T13:51:05.728Z,-2.56
2018-12-15T13:53:33.986Z,-2.64
2018-12-15T13:56:02.313Z,-2.66
2018-12-15T13:58:30.604Z,-2.65
2018-12-15T14:00:58.913Z,-2.21
2018-12-15T14:03:27.164Z,-2.54
2018-12-15T14:05:55.513Z,-2.56
2018-12-15T14:08:23.827Z,-2.60
2018-12-15T14:10:52.199Z,-2.49
2018-12-15T14:13:20.460Z,-2.58
2018-12-15T14:15:48.715Z,-2.73
2018-12-15T14:18:17.035Z,-2.79
2018-12-15T14:20:45.325Z,-2.71
2018-12-15T14:23:13.579Z,-2.72
2018-12-15T14:25:41.874Z,-2.66
2018-12-15T14:28:10.180Z,-2.64
2018-12-15T14:30:38.512Z,-2.67
2018-12-15T14:33:06.850Z,-2.61
2018-12-15T14:35:35.116Z,-2.77
2018-12-15T14:38:03.465Z,-2.78
2018-12-15T14:40:31.704Z,-2.76
2018-12-15T14:43:00.069Z,-2.60
2018-12-15T14:45:28.797Z,-2.75
2018-12-15T14:47:57.096Z,-2.84
2018-12-15T14:50:25.424Z,-2.73
2018-12-15T14:52:53.679Z,-2.75
2018-12-15T14:55:21.965Z,-2.76
2018-12-15T14:57:50.311Z,-2.80
2018-12-15T15:00:18.797Z,-2.84
2018-12-15T15:02:47.048Z,-2.82
2018-12-15T15:05:15.335Z,-2.91
2018-12-15T15:07:43.607Z,-2.95
2018-12-15T15:10:12.036Z,-2.96
2018-12-15T15:12:40.330Z,-3.01
2018-12-15T15:15:08.827Z,-3.07
2018-12-15T15:17:37.129Z,-2.94
2018-12-15T15:20:08.981Z,-3.08
2018-12-15T15:25:11.630Z,-3.22
2018-12-15T15:27:39.952Z,-3.34
2018-12-15T15:30:08.473Z,-3.31
2018-12-15T15:35:14.992Z,-3.36
2018-12-15T15:37:43.279Z,-3.34
2018-12-15T15:40:11.632Z,-3.40
2018-12-15T15:42:39.895Z,-3.55
2018-12-15T15:45:08.366Z,-3.57
2018-12-15T15:47:36.656Z,-3.64
2018-12-15T15:50:07.090Z,-3.71
2018-12-15T15:52:35.440Z,-3.78
2018-12-15T15:55:04.975Z,-3.80
2018-12-15T15:57:33.305Z,-3.85
2018-12-15T16:00:01.656Z,-3.85
2018-12-15T16:02:30.064Z,-3.91
2018-12-15T16:04:58.344Z,-3.98
2018-12-15T16:07:26.772Z,-3.99
2018-12-15T16:09:55.048Z,-4.02
2018-12-15T16:12:23.400Z,-4.15
2018-12-15T16:14:51.681Z,-4.21
2018-12-15T16:17:20.023Z,-4.29
2018-12-15T16:19:48.276Z,-4.43
2018-12-15T16:22:16.774Z,-4.48
2018-12-15T16:24:45.205Z,-4.55
2018-12-15T16:29:51.659Z,-4.68
2018-12-15T16:32:20.004Z,-4.66
2018-12-15T16:34:48.356Z,-4.73
2018-12-15T16:37:16.677Z,-4.83
2018-12-15T16:39:45.016Z,-4.81
2018-12-15T16:42:13.463Z,-4.86
2018-12-15T16:44:41.768Z,-4.83
2018-12-15T16:47:10.100Z,-4.84
2018-12-15T16:49:38.359Z,-4.89
2018-12-15T16:52:06.692Z,-4.87
2018-12-15T16:54:35.068Z,-4.90
2018-12-15T16:57:03.336Z,-4.93
2018-12-15T16:59:31.591Z,-5.01
2018-12-15T17:02:00.071Z,-5.10
2018-12-15T17:04:28.387Z,-5.04
2018-12-15T17:06:56.687Z,-5.14
2018-12-15T17:09:25.112Z,-5.14
2018-12-15T17:11:53.412Z,-5.17
2018-12-15T17:14:21.865Z,-5.33
2018-12-15T17:16:50.171Z,-5.32
2018-12-15T17:19:18.830Z,-5.42
2018-12-15T17:21:47.111Z,-5.19
2018-12-15T17:24:15.400Z,-5.53
2018-12-15T17:26:43.726Z,-5.61
2018-12-15T17:29:11.988Z,-5.67
2018-12-15T17:31:40.279Z,-5.65
2018-12-15T17:34:08.600Z,-5.70
2018-12-15T17:36:36.904Z,-5.78
2018-12-15T17:39:07.360Z,-5.92
2018-12-15T17:41:35.887Z,-5.94
2018-12-15T17:44:04.228Z,-6.05
2018-12-15T17:46:32.487Z,-6.10
2018-12-15T17:49:00.794Z,-6.07
2018-12-15T17:51:29.115Z,-6.13
2018-12-15T17:56:35.706Z,-6.16
2018-12-15T17:59:03.987Z,-6.05
2018-12-15T18:01:32.321Z,-6.25
2018-12-15T18:04:00.588Z,-6.30
2018-12-15T18:06:28.916Z,-6.41
2018-12-15T18:08:57.179Z,-6.44
2018-12-15T18:11:25.484Z,-6.52
2018-12-15T18:13:53.744Z,-6.54
2018-12-15T18:16:22.045Z,-6.57
2018-12-15T18:18:50.889Z,-6.68
2018-12-15T18:21:19.244Z,-6.64
2018-12-15T18:23:47.508Z,-6.81
2018-12-15T18:26:15.811Z,-6.83
2018-12-15T18:28:44.117Z,-6.80
2018-12-15T18:33:50.580Z,-6.89
2018-12-15T18:36:18.884Z,-6.93
2018-12-15T18:38:47.179Z,-7.02
2018-12-15T18:41:15.479Z,-7.00
2018-12-15T18:43:43.791Z,-7.07
2018-12-15T18:46:12.152Z,-7.08
2018-12-15T18:48:40.471Z,-7.07
2018-12-15T18:51:08.739Z,-7.04
2018-12-15T18:53:37.060Z,-7.09
2018-12-15T18:56:05.431Z,-7.18
2018-12-15T18:58:33.700Z,-7.22
2018-12-15T19:01:02.009Z,-7.33
2018-12-15T19:03:30.353Z,-7.32
2018-12-15T19:05:58.608Z,-7.27
2018-12-15T19:08:26.949Z,-7.27
2018-12-15T19:10:55.266Z,-7.41
2018-12-15T19:13:23.545Z,-7.36
2018-12-15T19:15:51.823Z,-7.62
2018-12-15T19:18:20.100Z,-7.61
2018-12-15T19:20:48.339Z,-7.62
2018-12-15T19:23:16.669Z,-7.69
2018-12-15T19:25:44.928Z,-7.72
2018-12-15T19:28:13.236Z,-7.77
2018-12-15T19:30:41.505Z,-7.84
2018-12-15T19:33:09.765Z,-7.82
2018-12-15T19:35:38.066Z,-7.77
2018-12-15T19:38:06.411Z,-7.84
2018-12-15T19:40:34.667Z,-7.88
2018-12-15T19:43:02.966Z,-7.90
2018-12-15T19:45:31.227Z,-7.92
2018-12-15T19:47:59.539Z,-8.03
2018-12-15T19:50:27.791Z,-8.08
2018-12-15T19:52:56.121Z,-8.17
2018-12-15T19:55:24.399Z,-8.00
2018-12-15T19:57:52.747Z,-8.14
2018-12-15T20:00:21.104Z,-8.16
2018-12-15T20:02:49.393Z,-8.12
2018-12-15T20:05:17.840Z,-8.16
2018-12-15T20:07:46.192Z,-8.30
2018-12-15T20:10:14.510Z,-8.24
2018-12-15T20:12:42.836Z,-8.29
2018-12-15T20:15:11.123Z,-8.25
2018-12-15T20:17:39.414Z,-8.25
2018-12-15T20:20:07.786Z,-8.25
2018-12-15T20:22:36.296Z,-8.34
2018-12-15T20:25:05.147Z,-8.34
2018-12-15T20:27:33.412Z,-8.37
2018-12-15T20:30:01.717Z,-8.38
2018-12-15T20:32:31.235Z,-8.33
2018-12-15T20:34:59.538Z,-8.55
2018-12-15T20:37:27.844Z,-8.52
2018-12-15T20:39:56.144Z,-8.54
2018-12-15T20:42:24.441Z,-8.57
2018-12-15T20:44:52.731Z,-8.64
2018-12-15T20:49:59.185Z,-8.76
2018-12-15T20:52:27.633Z,-8.65
2018-12-15T20:54:55.979Z,-8.75
2018-12-15T20:57:24.342Z,-8.71
2018-12-15T20:59:52.620Z,-8.63
2018-12-15T21:02:20.953Z,-8.67
2018-12-15T21:04:49.228Z,-8.72
2018-12-15T21:07:17.523Z,-8.72
2018-12-15T21:09:45.798Z,-8.73
2018-12-15T21:12:14.051Z,-8.79
2018-12-15T21:14:42.347Z,-8.87
2018-12-15T21:17:10.609Z,-8.92
2018-12-15T21:19:38.945Z,-8.98
2018-12-15T21:22:10.600Z,-8.97
2018-12-15T21:24:39.014Z,-8.97
2018-12-15T21:27:07.313Z,-8.94
2018-12-15T21:29:35.576Z,-8.93
2018-12-15T21:32:04.200Z,-8.98
2018-12-15T21:34:32.451Z,-9.01
2018-12-15T21:37:00.748Z,-9.08
2018-12-15T21:39:29.050Z,-9.12
2018-12-15T21:41:57.308Z,-9.14
2018-12-15T21:44:25.618Z,-9.15
2018-12-15T21:46:53.912Z,-9.17
2018-12-15T21:49:22.208Z,-9.20
2018-12-15T21:51:56.095Z,-9.21
2018-12-15T21:54:20.772Z,-9.24
2018-12-15T21:59:27.216Z,-9.35
2018-12-15T22:01:56.385Z,-9.33
2018-12-15T22:04:24.679Z,-9.32
2018-12-15T22:06:53.211Z,-9.33
2018-12-15T22:09:21.510Z,-9.23
2018-12-15T22:11:49.773Z,-9.20
2018-12-15T22:14:18.040Z,-9.26
2018-12-15T22:16:46.305Z,-9.31
2018-12-15T22:19:14.583Z,-9.36
2018-12-15T22:21:42.985Z,-9.30
2018-12-15T22:24:11.335Z,-9.23
2018-12-15T22:26:39.635Z,-9.35
2018-12-15T22:29:07.924Z,-9.29
2018-12-15T22:31:36.246Z,-9.26
2018-12-15T22:34:04.500Z,-9.39
2018-12-15T22:36:32.792Z,-9.28
2018-12-15T22:39:01.075Z,-9.51
2018-12-15T22:41:29.326Z,-9.47
2018-12-15T22:46:35.844Z,-9.45
2018-12-15T22:49:04.125Z,-9.62
2018-12-15T22:54:03.041Z,-9.73
2018-12-15T22:56:31.328Z,-9.67
2018-12-15T22:58:59.612Z,-9.71
2018-12-15T23:04:14.588Z,-9.77
2018-12-15T23:06:42.985Z,-9.71
2018-12-15T23:09:11.367Z,-9.78
2018-12-15T23:11:39.685Z,-9.77
2018-12-15T23:14:07.947Z,-9.85
2018-12-15T23:16:36.289Z,-9.90
2018-12-15T23:21:42.759Z,-9.77
2018-12-15T23:24:11.145Z,-9.70
2018-12-15T23:26:40.066Z,-9.74
2018-12-15T23:29:08.326Z,-9.80
2018-12-15T23:31:36.599Z,-9.85
2018-12-15T23:34:04.936Z,-9.95
2018-12-15T23:36:33.268Z,-9.92
2018-12-15T23:39:01.566Z,-9.96
2018-12-15T23:41:29.859Z,-9.81
2018-12-15T23:43:58.143Z,-9.71
2018-12-15T23:46:26.467Z,-9.71
2018-12-15T23:48:54.743Z,-9.93
2018-12-15T23:51:23.013Z,-10.00
2018-12-15T23:53:51.335Z,-10.03
2018-12-15T23:56:19.636Z,-10.13
2018-12-15T23:58:47.908Z,-10.10
